Time;durP1;ratioP1;P1;durP2;ratioP2;P2;SDS_P1;SDS_P2;PMS_P1;PMS_P2;Temp;Humidity;BMP_temperature;BMP_pressure;BME280_temperature;BME280_humidity;BME280_pressure;Samples;Min_cycle;Max_cycle;Signal;HPM_P1;HPM_P2
2022/02/08 00:00:04;;;;;;;7.75;3.40;;;;;;;;;;5033996;28;20022;-82
2022/02/08 00:02:33;;;;;;;9.65;3.95;;;;;;;;;;5032694;28;20049;-83
2022/02/08 00:04:59;;;;;;;7.32;3.83;;;;;;;;;;5033718;28;20075;-83
2022/02/08 00:07:28;;;;;;;10.40;3.58;;;;;;;;;;5034024;28;20021;-84
2022/02/08 00:09:54;;;;;;;7.35;3.55;;;;;;;;;;5033943;28;20024;-84
2022/02/08 00:12:20;;;;;;;5.80;2.90;;;;;;;;;;5033410;28;20096;-84
2022/02/08 00:14:48;;;;;;;5.28;2.95;;;;;;;;;;5033778;28;20021;-84
2022/02/08 00:17:14;;;;;;;5.07;2.60;;;;;;;;;;5035401;28;20049;-83
2022/02/08 00:19:40;;;;;;;7.45;3.67;;;;;;;;;;5033734;28;20040;-83
2022/02/08 00:22:06;;;;;;;7.82;3.53;;;;;;;;;;5034277;28;20500;-82
2022/02/08 00:24:33;;;;;;;7.80;3.10;;;;;;;;;;5032169;28;20021;-82
2022/02/08 00:26:59;;;;;;;5.82;3.40;;;;;;;;;;5032465;28;20029;-83
2022/02/08 00:29:26;;;;;;;5.80;2.70;;;;;;;;;;5034194;28;20029;-83
2022/02/08 00:31:52;;;;;;;5.93;2.80;;;;;;;;;;5034073;28;20026;-84
2022/02/08 00:34:18;;;;;;;10.98;3.42;;;;;;;;;;5034254;28;20018;-84
2022/02/08 00:36:44;;;;;;;4.30;2.17;;;;;;;;;;5033859;28;20117;-84
2022/02/08 00:39:11;;;;;;;3.88;1.90;;;;;;;;;;5033905;28;20101;-83
2022/02/08 00:41:38;;;;;;;6.18;2.22;;;;;;;;;;5033793;28;20021;-83
2022/02/08 00:44:11;;;;;;;5.38;1.95;;;;;;;;;;5033631;28;20030;-82
2022/02/08 00:46:55;;;;;;;5.45;2.55;;;;;;;;;;5032547;28;20022;-83
2022/02/08 00:49:29;;;;;;;3.88;2.00;;;;;;;;;;5032715;28;20056;-84
2022/02/08 00:52:04;;;;;;;5.50;2.22;;;;;;;;;;5033859;28;20026;-84
2022/02/08 00:54:30;;;;;;;5.32;2.30;;;;;;;;;;5033778;28;20137;-84
2022/02/08 00:56:56;;;;;;;4.85;2.30;;;;;;;;;;5033628;28;20034;-82
2022/02/08 00:59:22;;;;;;;4.00;2.05;;;;;;;;;;5032963;28;20116;-82
2022/02/08 01:01:48;;;;;;;5.72;2.50;;;;;;;;;;5033172;28;20018;-83
2022/02/08 01:04:15;;;;;;;5.60;2.55;;;;;;;;;;5033500;28;20032;-83
2022/02/08 01:06:42;;;;;;;4.70;2.47;;;;;;;;;;5032224;28;20060;-84
2022/02/08 01:09:16;;;;;;;4.63;2.00;;;;;;;;;;5032242;28;20500;-83
2022/02/08 01:11:44;;;;;;;4.45;2.40;;;;;;;;;;5033572;28;20028;-84
2022/02/08 01:14:10;;;;;;;4.30;1.85;;;;;;;;;;5032118;28;20029;-83
2022/02/08 01:16:37;;;;;;;4.95;2.28;;;;;;;;;;5033471;28;20060;-84
2022/02/08 01:19:04;;;;;;;6.68;2.05;;;;;;;;;;5034354;28;20017;-82
2022/02/08 01:21:31;;;;;;;4.38;1.95;;;;;;;;;;5033276;28;20444;-83
2022/02/08 01:23:58;;;;;;;4.85;2.03;;;;;;;;;;5034434;28;20049;-84
2022/02/08 01:26:24;;;;;;;3.60;2.15;;;;;;;;;;5037029;28;20028;-83
2022/02/08 01:29:04;;;;;;;3.53;2.00;;;;;;;;;;5036669;28;20458;-83
2022/02/08 01:31:36;;;;;;;4.35;2.28;;;;;;;;;;5036946;28;20021;-83
2022/02/08 01:44:20;;;;;;;5.50;2.15;;;;;;;;;;5037202;28;20466;-84
2022/02/08 01:46:57;;;;;;;6.70;2.70;;;;;;;;;;5036867;28;20473;-84
2022/02/08 01:51:49;;;;;;;4.93;2.28;;;;;;;;;;5037353;28;20106;-84
2022/02/08 01:54:15;;;;;;;9.75;2.17;;;;;;;;;;5037034;28;20025;-83
2022/02/08 01:56:42;;;;;;;4.25;2.25;;;;;;;;;;5035822;28;20486;-83
2022/02/08 01:59:08;;;;;;;4.43;2.30;;;;;;;;;;5036655;28;20029;-81
2022/02/08 02:01:35;;;;;;;4.32;2.25;;;;;;;;;;5035961;28;20029;-82
2022/02/08 02:04:01;;;;;;;3.72;2.00;;;;;;;;;;5035685;28;20516;-83
2022/02/08 02:06:27;;;;;;;5.63;2.13;;;;;;;;;;5036087;28;20032;-83
2022/02/08 02:08:53;;;;;;;5.38;2.13;;;;;;;;;;5036265;28;20025;-85
2022/02/08 02:11:20;;;;;;;3.42;2.05;;;;;;;;;;5034999;28;20041;-84
2022/02/08 02:13:48;;;;;;;7.03;2.55;;;;;;;;;;5035917;28;20018;-84
2022/02/08 02:16:20;;;;;;;3.88;2.03;;;;;;;;;;5036275;28;20029;-84
2022/02/08 02:18:47;;;;;;;5.22;1.80;;;;;;;;;;5035737;28;20068;-85
2022/02/08 02:21:15;;;;;;;3.33;1.85;;;;;;;;;;5036544;28;20022;-84
2022/02/08 02:23:45;;;;;;;3.60;2.10;;;;;;;;;;5036353;28;20032;-84
2022/02/08 02:26:11;;;;;;;5.25;2.10;;;;;;;;;;5034405;28;20385;-82
2022/02/08 02:28:37;;;;;;;5.57;2.38;;;;;;;;;;5035793;28;20026;-83
2022/02/08 02:31:04;;;;;;;3.53;1.55;;;;;;;;;;5036057;28;20021;-82
2022/02/08 02:33:30;;;;;;;4.38;2.72;;;;;;;;;;5036056;28;20045;-83
2022/02/08 02:35:56;;;;;;;3.38;2.00;;;;;;;;;;5034420;28;20025;-85
2022/02/08 02:38:24;;;;;;;3.30;2.15;;;;;;;;;;5035422;28;20048;-85
2022/02/08 02:40:51;;;;;;;5.07;2.35;;;;;;;;;;5035439;28;20025;-85
2022/02/08 02:43:18;;;;;;;3.85;2.25;;;;;;;;;;5034394;28;20029;-81
2022/02/08 02:45:44;;;;;;;4.03;2.05;;;;;;;;;;5035495;28;20025;-83
2022/02/08 02:48:11;;;;;;;2.92;1.83;;;;;;;;;;5035909;28;20021;-83
2022/02/08 02:50:37;;;;;;;4.20;1.90;;;;;;;;;;5035531;28;20547;-83
2022/02/08 02:53:03;;;;;;;3.60;1.80;;;;;;;;;;5046348;28;20025;-81
2022/02/08 02:55:33;;;;;;;3.83;2.03;;;;;;;;;;5042914;28;20100;-83
2022/02/08 02:57:59;;;;;;;4.15;2.08;;;;;;;;;;5045246;28;20044;-80
2022/02/08 03:03:14;;;;;;;4.40;2.28;;;;;;;;;;5035789;28;20461;-81
2022/02/08 03:19:19;;;;;;;3.00;1.83;;;;;;;;;;5034792;28;20043;-82
2022/02/08 03:21:45;;;;;;;5.15;2.10;;;;;;;;;;5033342;28;20079;-83
2022/02/08 03:24:11;;;;;;;3.13;1.77;;;;;;;;;;5034628;28;20022;-81
2022/02/08 03:26:38;;;;;;;4.38;2.20;;;;;;;;;;5034600;28;20470;-82
2022/02/08 03:29:04;;;;;;;4.90;2.22;;;;;;;;;;5034343;28;20028;-82
2022/02/08 03:31:30;;;;;;;6.47;2.95;;;;;;;;;;5034317;28;20100;-82
2022/02/08 03:33:56;;;;;;;6.00;2.80;;;;;;;;;;5033204;28;20087;-83
2022/02/08 03:36:23;;;;;;;4.75;2.22;;;;;;;;;;5032973;28;20021;-82
2022/02/08 03:39:01;;;;;;;4.95;2.17;;;;;;;;;;5034248;28;20061;-82
2022/02/08 03:41:35;;;;;;;4.20;2.47;;;;;;;;;;5034212;28;20047;-81
2022/02/08 03:44:01;;;;;;;4.53;2.03;;;;;;;;;;5033039;28;20025;-82
2022/02/08 03:46:30;;;;;;;4.47;1.98;;;;;;;;;;5034119;28;20032;-82
2022/02/08 03:48:56;;;;;;;6.10;2.53;;;;;;;;;;5032726;28;20024;-83
2022/02/08 03:51:25;;;;;;;4.95;2.42;;;;;;;;;;5033147;28;20117;-83
2022/02/08 03:53:52;;;;;;;3.25;2.00;;;;;;;;;;5033107;28;20022;-83
2022/02/08 03:56:21;;;;;;;4.82;2.63;;;;;;;;;;5033097;28;20087;-81
2022/02/08 03:58:47;;;;;;;5.28;2.38;;;;;;;;;;5033872;28;20084;-80
2022/02/08 04:06:50;;;;;;;3.63;2.13;;;;;;;;;;5033315;28;20478;-82
2022/02/08 04:09:18;;;;;;;6.40;2.58;;;;;;;;;;5032530;28;20051;-83
2022/02/08 04:12:09;;;;;;;5.88;2.10;;;;;;;;;;5033752;28;20428;-82
2022/02/08 04:15:08;;;;;;;5.65;2.40;;;;;;;;;;5033971;28;20036;-82
2022/02/08 04:17:52;;;;;;;4.28;2.50;;;;;;;;;;5033602;28;20053;-82
2022/02/08 04:44:47;;;;;;;6.25;3.10;;;;;;;;;;5031550;28;20022;-82
2022/02/08 04:47:26;;;;;;;6.50;3.80;;;;;;;;;;5032791;28;20065;-82
2022/02/08 04:49:54;;;;;;;5.72;3.65;;;;;;;;;;5032507;28;20037;-83
2022/02/08 04:52:22;;;;;;;7.15;3.17;;;;;;;;;;5032158;28;20025;-83
2022/02/08 04:57:45;;;;;;;11.73;5.07;;;;;;;;;;5033288;28;20051;-81
2022/02/08 05:36:40;;;;;;;6.90;3.97;;;;;;;;;;5036312;28;20036;-77
2022/02/08 05:44:07;;;;;;;7.97;4.13;;;;;;;;;;5036242;28;20025;-77
2022/02/08 05:49:10;;;;;;;12.68;4.35;;;;;;;;;;5037746;28;20533;-79
2022/02/08 05:54:18;;;;;;;12.30;4.18;;;;;;;;;;5036696;28;20397;-77
2022/02/08 05:56:48;;;;;;;9.82;4.07;;;;;;;;;;5036035;28;20079;-76
2022/02/08 05:59:14;;;;;;;9.05;4.40;;;;;;;;;;5035228;28;20022;-77
2022/02/08 06:01:40;;;;;;;10.45;4.68;;;;;;;;;;5033010;28;20113;-76
2022/02/08 06:04:08;;;;;;;12.60;5.72;;;;;;;;;;5033535;28;20079;-79
2022/02/08 06:06:34;;;;;;;9.82;4.85;;;;;;;;;;5036018;28;20013;-80
2022/02/08 06:09:01;;;;;;;11.90;5.25;;;;;;;;;;5033103;28;20593;-79
2022/02/08 06:11:28;;;;;;;10.32;5.10;;;;;;;;;;5034052;28;20026;-77
2022/02/08 06:13:54;;;;;;;14.65;5.45;;;;;;;;;;5035335;28;20496;-76
2022/02/08 06:16:22;;;;;;;11.50;5.25;;;;;;;;;;5033091;28;20029;-75
2022/02/08 06:18:48;;;;;;;13.75;5.60;;;;;;;;;;5032875;28;20561;-76
2022/02/08 06:21:14;;;;;;;9.63;4.97;;;;;;;;;;5049178;28;20107;-77
2022/02/08 06:23:41;;;;;;;10.43;5.18;;;;;;;;;;5053413;28;20039;-74
2022/02/08 06:26:07;;;;;;;10.00;5.45;;;;;;;;;;5053771;28;20027;-73
2022/02/08 06:28:33;;;;;;;11.68;6.05;;;;;;;;;;5051872;28;20370;-73
2022/02/08 06:30:59;;;;;;;10.95;5.30;;;;;;;;;;5053238;28;20447;-70
2022/02/08 06:33:25;;;;;;;10.52;6.25;;;;;;;;;;5053933;28;20021;-71
2022/02/08 06:35:52;;;;;;;13.10;7.22;;;;;;;;;;5054248;28;20108;-76
2022/02/08 06:38:19;;;;;;;8.55;4.78;;;;;;;;;;5051167;28;20036;-72
2022/02/08 06:40:49;;;;;;;11.40;5.47;;;;;;;;;;5050795;28;20021;-72
2022/02/08 06:43:16;;;;;;;13.25;6.03;;;;;;;;;;5051987;28;20025;-70
2022/02/08 06:45:42;;;;;;;15.65;6.28;;;;;;;;;;5005003;28;20132;-74
2022/02/08 06:48:10;;;;;;;9.25;4.32;;;;;;;;;;5013529;28;20026;-71
2022/02/08 06:50:36;;;;;;;16.65;6.03;;;;;;;;;;5014072;28;20041;-77
2022/02/08 06:53:03;;;;;;;10.85;5.13;;;;;;;;;;5013679;28;20049;-75
2022/02/08 06:55:29;;;;;;;11.25;5.82;;;;;;;;;;5013227;28;20080;-78
2022/02/08 07:00:31;;;;;;;8.55;5.05;;;;;;;;;;5013368;28;20382;-74
2022/02/08 07:02:57;;;;;;;9.73;4.97;;;;;;;;;;5011600;28;20375;-74
2022/02/08 07:05:23;;;;;;;10.75;4.82;;;;;;;;;;5011299;28;20056;-73
2022/02/08 07:07:49;;;;;;;10.05;5.47;;;;;;;;;;5012209;28;20077;-72
2022/02/08 07:10:15;;;;;;;13.15;5.57;;;;;;;;;;5013189;28;20021;-76
2022/02/08 07:12:42;;;;;;;7.15;4.00;;;;;;;;;;5011238;28;20030;-77
2022/02/08 07:15:13;;;;;;;8.82;4.57;;;;;;;;;;5013474;28;20114;-78
2022/02/08 07:17:40;;;;;;;8.60;5.25;;;;;;;;;;5012671;28;20136;-76
2022/02/08 07:20:06;;;;;;;9.77;4.57;;;;;;;;;;5015590;28;20146;-74
2022/02/08 07:22:32;;;;;;;8.07;3.92;;;;;;;;;;5024408;28;20048;-73
2022/02/08 07:24:59;;;;;;;9.07;4.15;;;;;;;;;;5031513;28;20037;-73
2022/02/08 07:27:26;;;;;;;11.25;5.53;;;;;;;;;;5023611;28;20051;-73
2022/02/08 07:29:53;;;;;;;8.07;3.95;;;;;;;;;;5028127;28;20028;-71
2022/02/08 07:32:28;;;;;;;11.98;6.07;;;;;;;;;;5031919;28;20029;-71
2022/02/08 07:35:10;;;;;;;10.13;4.90;;;;;;;;;;5028704;28;20033;-73
2022/02/08 07:37:49;;;;;;;11.57;5.63;;;;;;;;;;5030292;28;20033;-72
2022/02/08 07:40:29;;;;;;;11.30;6.30;;;;;;;;;;5029382;28;20025;-71
2022/02/08 07:42:55;;;;;;;11.00;5.18;;;;;;;;;;5029067;28;20112;-73
2022/02/08 07:45:22;;;;;;;10.63;4.72;;;;;;;;;;5030607;28;20025;-74
2022/02/08 07:47:49;;;;;;;10.05;4.50;;;;;;;;;;5032598;28;20029;-74
2022/02/08 07:50:15;;;;;;;8.30;3.92;;;;;;;;;;5030530;28;20069;-71
2022/02/08 07:52:44;;;;;;;8.95;4.72;;;;;;;;;;5027890;28;20028;-71
2022/02/08 07:55:10;;;;;;;13.45;5.20;;;;;;;;;;5030699;28;20029;-70
2022/02/08 07:57:36;;;;;;;9.23;5.85;;;;;;;;;;5032077;28;20393;-70
2022/02/08 08:00:03;;;;;;;9.68;4.22;;;;;;;;;;5031050;28;20513;-74
2022/02/08 08:02:29;;;;;;;11.95;5.30;;;;;;;;;;5031986;28;20040;-74
2022/02/08 08:04:55;;;;;;;8.82;4.28;;;;;;;;;;5031921;28;20053;-75
2022/02/08 08:07:21;;;;;;;10.82;5.32;;;;;;;;;;5030714;28;20105;-73
2022/02/08 08:09:48;;;;;;;10.20;5.13;;;;;;;;;;5032164;28;20029;-72
2022/02/08 08:12:15;;;;;;;11.40;5.38;;;;;;;;;;5023994;28;20096;-73
2022/02/08 08:14:43;;;;;;;12.10;5.18;;;;;;;;;;5030814;28;20461;-73
2022/02/08 08:17:39;;;;;;;15.48;6.47;;;;;;;;;;5030499;28;20107;-74
2022/02/08 08:20:01;;;;;;;11.73;7.20;;;;;;;;;;5030292;28;20044;-73
2022/02/08 08:22:27;;;;;;;11.68;6.15;;;;;;;;;;5029793;28;20029;-72
2022/02/08 08:24:53;;;;;;;7.80;3.95;;;;;;;;;;5030832;28;20026;-74
2022/02/08 08:27:20;;;;;;;17.05;6.00;;;;;;;;;;5029586;28;20033;-76
2022/02/08 08:29:46;;;;;;;9.77;5.50;;;;;;;;;;5031606;28;20042;-74
2022/02/08 08:32:12;;;;;;;13.10;6.47;;;;;;;;;;5032036;28;20057;-75
2022/02/08 08:34:39;;;;;;;15.00;6.25;;;;;;;;;;5033569;28;20014;-72
2022/02/08 08:37:06;;;;;;;13.80;6.07;;;;;;;;;;5033919;28;20037;-73
2022/02/08 08:39:40;;;;;;;9.95;5.63;;;;;;;;;;5036623;28;20045;-75
2022/02/08 08:50:18;;;;;;;11.20;5.80;;;;;;;;;;5037099;28;20504;-78
2022/02/08 08:52:48;;;;;;;10.40;4.85;;;;;;;;;;5036169;28;20049;-82
2022/02/08 08:55:16;;;;;;;9.82;4.80;;;;;;;;;;5036572;28;20829;-76
2022/02/08 08:57:43;;;;;;;11.60;5.25;;;;;;;;;;5036596;28;20033;-75
2022/02/08 09:00:10;;;;;;;9.57;5.85;;;;;;;;;;5035451;28;20026;-80
2022/02/08 09:02:36;;;;;;;15.10;6.90;;;;;;;;;;5035102;28;20032;-81
2022/02/08 09:05:05;;;;;;;12.18;5.65;;;;;;;;;;5033933;28;20025;-80
2022/02/08 09:07:32;;;;;;;12.68;6.13;;;;;;;;;;5036326;28;20481;-82
2022/02/08 09:10:01;;;;;;;13.48;5.55;;;;;;;;;;5036204;28;20026;-85
2022/02/08 09:12:52;;;;;;;9.43;4.40;;;;;;;;;;5035380;28;20017;-80
2022/02/08 09:15:37;;;;;;;9.20;4.82;;;;;;;;;;5034623;28;20815;-85
2022/02/08 09:25:56;;;;;;;16.95;6.32;;;;;;;;;;5035344;28;20021;-86
2022/02/08 09:28:40;;;;;;;13.15;6.82;;;;;;;;;;5031298;28;20026;-82
2022/02/08 09:31:10;;;;;;;12.88;6.38;;;;;;;;;;5033856;28;20048;-84
2022/02/08 09:33:36;;;;;;;15.30;7.68;;;;;;;;;;5034524;28;20052;-85
2022/02/08 09:36:02;;;;;;;9.88;4.88;;;;;;;;;;5043742;28;20021;-82
2022/02/08 09:38:31;;;;;;;11.65;5.50;;;;;;;;;;5044086;28;20029;-82
2022/02/08 09:41:00;;;;;;;9.07;4.75;;;;;;;;;;5045880;28;20782;-81
2022/02/08 09:43:29;;;;;;;7.28;4.50;;;;;;;;;;5041589;28;20035;-83
2022/02/08 09:45:59;;;;;;;10.38;4.38;;;;;;;;;;5039567;28;20025;-84
2022/02/08 09:48:38;;;;;;;8.07;3.20;;;;;;;;;;5039925;28;20021;-80
2022/02/08 09:51:04;;;;;;;6.95;3.80;;;;;;;;;;5039723;28;20043;-86
2022/02/08 09:53:35;;;;;;;8.13;4.90;;;;;;;;;;5042378;28;20108;-83
2022/02/08 09:56:03;;;;;;;7.43;3.63;;;;;;;;;;5039453;28;20370;-86
2022/02/08 09:58:29;;;;;;;17.33;5.82;;;;;;;;;;5041460;28;20037;-78
2022/02/08 10:01:12;;;;;;;8.23;4.65;;;;;;;;;;5040586;28;20051;-86
2022/02/08 10:03:38;;;;;;;;;;;;;;;;;;5038570;28;20040;-81
2022/02/08 10:06:05;;;;;;;11.02;5.63;;;;;;;;;;5032305;28;20261;-82
2022/02/08 10:08:31;;;;;;;17.58;7.10;;;;;;;;;;5035629;28;20123;-84
2022/02/08 10:10:59;;;;;;;13.63;5.00;;;;;;;;;;5037524;28;20021;-86
2022/02/08 10:13:56;;;;;;;8.65;5.18;;;;;;;;;;5036805;28;20021;-86
2022/02/08 10:19:39;;;;;;;8.60;4.75;;;;;;;;;;5037009;28;20107;-81
2022/02/08 10:22:05;;;;;;;11.52;5.40;;;;;;;;;;5037054;28;20100;-82
2022/02/08 10:24:35;;;;;;;12.90;5.35;;;;;;;;;;5035192;28;20021;-82
2022/02/08 10:27:15;;;;;;;10.30;5.68;;;;;;;;;;5034103;28;20030;-81
2022/02/08 10:30:41;;;;;;;9.65;4.05;;;;;;;;;;5034331;28;20021;-85
2022/02/08 10:38:00;;;;;;;13.98;4.47;;;;;;;;;;5037300;28;20071;-84
2022/02/08 10:40:26;;;;;;;7.38;3.55;;;;;;;;;;5035512;28;20021;-84
2022/02/08 10:42:54;;;;;;;10.38;4.45;;;;;;;;;;5037655;28;20025;-82
2022/02/08 10:45:25;;;;;;;12.65;5.00;;;;;;;;;;5037263;28;20021;-86
2022/02/08 10:48:04;;;;;;;11.38;5.07;;;;;;;;;;5036644;28;20036;-85
2022/02/08 10:50:32;;;;;;;19.10;4.85;;;;;;;;;;5034296;28;20109;-80
2022/02/08 10:53:00;;;;;;;12.57;5.97;;;;;;;;;;5035913;28;20047;-81
2022/02/08 11:00:44;;;;;;;14.73;5.88;;;;;;;;;;5033806;28;20021;-76
2022/02/08 11:03:17;;;;;;;13.07;5.50;;;;;;;;;;5034267;28;20105;-77
2022/02/08 11:05:58;;;;;;;12.32;4.53;;;;;;;;;;5033701;28;20025;-77
2022/02/08 11:11:19;;;;;;;19.33;7.82;;;;;;;;;;5034807;28;20458;-80
2022/02/08 11:14:27;;;;;;;8.95;4.70;;;;;;;;;;5034493;28;20112;-85
2022/02/08 11:19:52;;;;;;;11.52;3.63;;;;;;;;;;5022452;28;20036;-74
2022/02/08 11:22:45;;;;;;;10.65;4.07;;;;;;;;;;5033589;28;20112;-74
2022/02/08 11:25:24;;;;;;;11.13;4.22;;;;;;;;;;5034506;28;20018;-80
2022/02/08 11:27:57;;;;;;;11.48;4.72;;;;;;;;;;5032872;28;20028;-82
2022/02/08 11:30:23;;;;;;;;;;;;;;;;;;5031414;28;20026;-82
2022/02/08 11:33:24;;;;;;;11.38;3.97;;;;;;;;;;5035127;28;20027;-83
2022/02/08 12:00:36;;;;;;;13.20;4.90;;;;;;;;;;5035964;28;20022;-84
2022/02/08 12:03:42;;;;;;;9.38;3.97;;;;;;;;;;5039002;28;20017;-80
2022/02/08 12:09:23;;;;;;;9.13;3.72;;;;;;;;;;5011540;28;20041;-78
2022/02/08 12:12:16;;;;;;;17.75;4.03;;;;;;;;;;5007805;28;20105;-83
2022/02/08 12:48:28;;;;;;;12.15;4.60;;;;;;;;;;5031313;28;20599;-81
2022/02/08 13:03:16;;;;;;;14.07;4.90;;;;;;;;;;5067382;28;20670;-79
2022/02/08 14:02:16;;;;;;;13.02;5.97;;;;;;;;;;5108710;28;20074;-74
2022/02/08 14:07:34;;;;;;;8.82;4.00;;;;;;;;;;5097171;28;20035;-73
2022/02/08 14:10:38;;;;;;;10.85;3.20;;;;;;;;;;5088568;28;20028;-73
2022/02/08 14:18:53;;;;;;;13.07;4.43;;;;;;;;;;5111221;28;20515;-74
2022/02/08 14:21:35;;;;;;;14.80;7.25;;;;;;;;;;5111205;28;20043;-74
2022/02/08 14:30:25;;;;;;;9.40;4.75;;;;;;;;;;5030345;28;20143;-75
2022/02/08 14:33:24;;;;;;;10.23;4.63;;;;;;;;;;5030744;28;20022;-74
2022/02/08 15:12:16;;;;;;;15.77;7.75;;;;;;;;;;5109487;27;20517;-73
2022/02/08 15:15:12;;;;;;;11.32;5.53;;;;;;;;;;5109933;27;20908;-73
2022/02/08 15:17:38;;;;;;;10.95;5.68;;;;;;;;;;5110058;28;20468;-74
2022/02/08 15:20:53;;;;;;;16.73;7.38;;;;;;;;;;5051022;28;20443;-74
2022/02/08 15:23:21;;;;;;;11.57;6.68;;;;;;;;;;5050787;28;20099;-74
2022/02/08 15:25:49;;;;;;;21.02;10.40;;;;;;;;;;5050209;28;20469;-74
2022/02/08 15:28:15;;;;;;;15.50;9.43;;;;;;;;;;5049611;28;20030;-74
2022/02/08 15:30:42;;;;;;;13.95;6.15;;;;;;;;;;5049203;28;20112;-74
2022/02/08 15:33:11;;;;;;;16.70;7.15;;;;;;;;;;5048969;28;20108;-75
2022/02/08 15:35:37;;;;;;;15.48;7.85;;;;;;;;;;5050459;28;20045;-75
2022/02/08 15:38:07;;;;;;;19.63;10.40;;;;;;;;;;5050269;28;20084;-75
2022/02/08 15:40:34;;;;;;;18.23;9.45;;;;;;;;;;5048933;28;20034;-74
2022/02/08 15:43:00;;;;;;;20.13;9.48;;;;;;;;;;5049061;28;20428;-74
2022/02/08 15:45:34;;;;;;;20.45;9.13;;;;;;;;;;5050179;28;20158;-74
2022/02/08 15:48:01;;;;;;;18.80;9.38;;;;;;;;;;5048640;28;20030;-73
2022/02/08 15:53:10;;;;;;;18.35;10.55;;;;;;;;;;5050088;28;20151;-75
2022/02/08 15:58:23;;;;;;;21.73;11.05;;;;;;;;;;5034459;28;20217;-73
2022/02/08 16:08:52;;;;;;;25.63;13.07;;;;;;;;;;5046867;28;20124;-74
2022/02/08 16:13:55;;;;;;;25.42;10.70;;;;;;;;;;5048467;28;20079;-74
2022/02/08 16:16:55;;;;;;;19.58;9.02;;;;;;;;;;5049437;28;20028;-73
2022/02/08 16:19:20;;;;;;;20.92;12.25;;;;;;;;;;5049377;28;20049;-75
2022/02/08 16:53:33;;;;;;;22.60;9.40;;;;;;;;;;5034191;28;20026;-74
2022/02/08 16:56:13;;;;;;;26.63;12.43;;;;;;;;;;5033878;28;20080;-75
2022/02/08 17:01:15;;;;;;;23.83;11.00;;;;;;;;;;5033649;28;20040;-75
2022/02/08 17:03:45;;;;;;;28.75;12.98;;;;;;;;;;5031925;28;20024;-74
2022/02/08 17:06:12;;;;;;;19.27;10.93;;;;;;;;;;5033484;28;20555;-76
2022/02/08 17:08:38;;;;;;;24.48;12.95;;;;;;;;;;5033543;28;20025;-74
2022/02/08 17:11:05;;;;;;;23.00;11.45;;;;;;;;;;5033092;28;20446;-75
2022/02/08 17:13:49;;;;;;;20.70;10.50;;;;;;;;;;5034123;28;20067;-75
2022/02/08 17:16:34;;;;;;;24.60;12.13;;;;;;;;;;5033923;28;20060;-75
2022/02/08 17:19:30;;;;;;;20.90;10.90;;;;;;;;;;5033003;28;20069;-75
2022/02/08 17:46:20;;;;;;;21.67;10.20;;;;;;;;;;5042610;28;20124;-75
2022/02/08 17:48:48;;;;;;;28.35;15.32;;;;;;;;;;5033604;28;20022;-74
2022/02/08 17:51:14;;;;;;;29.23;11.43;;;;;;;;;;5033576;28;20030;-75
2022/02/08 17:53:41;;;;;;;24.90;11.98;;;;;;;;;;5033034;28;20079;-75
2022/02/08 17:56:07;;;;;;;21.83;12.02;;;;;;;;;;5034679;28;20322;-76
2022/02/08 17:58:33;;;;;;;22.85;11.77;;;;;;;;;;5033394;28;20022;-76
2022/02/08 18:01:03;;;;;;;24.38;9.77;;;;;;;;;;5033063;28;20565;-75
2022/02/08 18:03:29;;;;;;;28.25;12.07;;;;;;;;;;5034520;28;20513;-75
2022/02/08 18:05:55;;;;;;;25.83;13.30;;;;;;;;;;5034387;28;20099;-75
2022/02/08 18:08:23;;;;;;;23.30;11.02;;;;;;;;;;5034187;28;20053;-74
2022/02/08 18:10:55;;;;;;;26.58;14.35;;;;;;;;;;5033166;28;20030;-73
2022/02/08 18:13:21;;;;;;;33.83;17.75;;;;;;;;;;5033167;28;20485;-74
2022/02/08 18:15:48;;;;;;;28.25;13.43;;;;;;;;;;5033996;28;20029;-74
2022/02/08 18:18:38;;;;;;;30.58;16.10;;;;;;;;;;5034257;28;20475;-74
2022/02/08 18:21:20;;;;;;;23.27;11.68;;;;;;;;;;5033847;28;20425;-74
2022/02/08 18:24:18;;;;;;;24.92;11.02;;;;;;;;;;5033695;28;20025;-74
2022/02/08 19:07:30;;;;;;;22.23;13.73;;;;;;;;;;5033532;28;20385;-75
2022/02/08 19:10:15;;;;;;;23.98;11.75;;;;;;;;;;5033128;28;20028;-74
2022/02/08 19:13:22;;;;;;;27.63;15.48;;;;;;;;;;5033428;28;20104;-74
2022/02/08 19:18:44;;;;;;;24.38;13.98;;;;;;;;;;5041172;28;20038;-76
2022/02/08 19:23:51;;;;;;;19.23;10.52;;;;;;;;;;5033341;28;20029;-74
2022/02/08 19:26:18;;;;;;;21.13;11.60;;;;;;;;;;5032801;28;20021;-75
2022/02/08 19:28:47;;;;;;;22.83;11.30;;;;;;;;;;5033248;28;20030;-75
2022/02/08 19:31:19;;;;;;;19.75;10.07;;;;;;;;;;5032840;28;20025;-74
2022/02/08 19:33:45;;;;;;;19.77;10.20;;;;;;;;;;5032069;28;20028;-75
2022/02/08 19:36:11;;;;;;;22.65;11.77;;;;;;;;;;5031968;28;20164;-76
2022/02/08 19:38:41;;;;;;;26.08;12.73;;;;;;;;;;5032700;28;20032;-75
2022/02/08 19:41:07;;;;;;;31.30;16.45;;;;;;;;;;5032258;28;20435;-75
2022/02/08 19:43:34;;;;;;;25.75;14.20;;;;;;;;;;5033248;28;20029;-76
2022/02/08 19:46:00;;;;;;;53.72;22.80;;;;;;;;;;5032767;28;20104;-75
2022/02/08 19:48:26;;;;;;;49.00;22.17;;;;;;;;;;5031871;28;20022;-76
2022/02/08 19:50:53;;;;;;;39.33;20.98;;;;;;;;;;5031881;28;20021;-74
2022/02/08 19:53:19;;;;;;;33.78;16.52;;;;;;;;;;5031493;28;20033;-74
2022/02/08 19:58:20;;;;;;;21.38;10.77;;;;;;;;;;5033353;28;20034;-74
2022/02/08 20:00:57;;;;;;;24.63;12.45;;;;;;;;;;5032525;28;20036;-75
2022/02/08 20:03:30;;;;;;;22.48;13.32;;;;;;;;;;5031871;28;20026;-74
2022/02/08 20:05:56;;;;;;;18.80;11.25;;;;;;;;;;5034003;28;20485;-74
2022/02/08 20:08:26;;;;;;;29.25;13.23;;;;;;;;;;5036364;28;20025;-74
2022/02/08 20:10:53;;;;;;;25.38;10.95;;;;;;;;;;5036806;28;20025;-75
2022/02/08 20:13:22;;;;;;;25.90;12.80;;;;;;;;;;5034470;28;20030;-75
2022/02/08 20:15:48;;;;;;;23.38;10.57;;;;;;;;;;5035358;28;20021;-75
2022/02/08 20:18:15;;;;;;;25.15;13.15;;;;;;;;;;5035254;28;20110;-76
2022/02/08 20:20:42;;;;;;;27.15;12.63;;;;;;;;;;5033897;28;20057;-75
2022/02/08 20:23:08;;;;;;;37.47;18.05;;;;;;;;;;5036250;28;20543;-77
2022/02/08 20:25:43;;;;;;;36.50;18.13;;;;;;;;;;5035150;28;20022;-75
2022/02/08 20:28:14;;;;;;;41.85;19.92;;;;;;;;;;5036180;28;20028;-75
2022/02/08 20:30:41;;;;;;;36.47;18.23;;;;;;;;;;5035412;28;20018;-75
2022/02/08 20:33:07;;;;;;;32.55;15.32;;;;;;;;;;5034765;28;20021;-75
2022/02/08 20:35:34;;;;;;;33.42;14.43;;;;;;;;;;5033910;28;20108;-76
2022/02/08 20:38:00;;;;;;;37.40;15.88;;;;;;;;;;5035409;28;20025;-75
2022/02/08 20:40:26;;;;;;;30.02;15.18;;;;;;;;;;5035943;28;20065;-74
2022/02/08 20:42:56;;;;;;;24.15;11.18;;;;;;;;;;5035770;28;20057;-75
2022/02/08 20:45:23;;;;;;;24.27;11.93;;;;;;;;;;5035721;28;20025;-75
2022/02/08 20:47:49;;;;;;;17.27;8.80;;;;;;;;;;5034116;28;20104;-75
2022/02/08 20:50:18;;;;;;;22.52;9.98;;;;;;;;;;5033759;28;20040;-76
2022/02/08 20:52:53;;;;;;;25.10;11.23;;;;;;;;;;5034006;28;20014;-76
2022/02/08 20:55:20;;;;;;;14.52;7.63;;;;;;;;;;5032763;28;20029;-77
2022/02/08 20:58:14;;;;;;;21.38;10.07;;;;;;;;;;5033545;28;20018;-77
2022/02/08 21:00:36;;;;;;;17.08;8.63;;;;;;;;;;5034087;28;20512;-77
2022/02/08 21:03:27;;;;;;;13.52;6.95;;;;;;;;;;5034191;28;20021;-77
2022/02/08 21:06:02;;;;;;;16.88;8.20;;;;;;;;;;5035633;28;20026;-74
2022/02/08 21:08:29;;;;;;;16.77;7.95;;;;;;;;;;5034488;28;20504;-76
2022/02/08 21:10:58;;;;;;;13.18;6.35;;;;;;;;;;5035350;28;20044;-74
2022/02/08 21:14:04;;;;;;;16.40;5.50;;;;;;;;;;5035708;28;20021;-75
2022/02/08 21:16:18;;;;;;;12.20;5.63;;;;;;;;;;5036142;28;20083;-75
2022/02/08 21:18:44;;;;;;;13.10;5.45;;;;;;;;;;5033549;28;20378;-74
2022/02/08 21:21:11;;;;;;;12.88;6.20;;;;;;;;;;5035436;28;20033;-76
2022/02/08 21:23:37;;;;;;;12.82;5.40;;;;;;;;;;5033689;28;20017;-75
2022/02/08 21:26:05;;;;;;;13.25;6.10;;;;;;;;;;5035407;28;20033;-75
2022/02/08 21:28:46;;;;;;;10.77;5.30;;;;;;;;;;5035302;28;20028;-76
2022/02/08 21:49:51;;;;;;;12.40;6.32;;;;;;;;;;5034886;28;20017;-76
2022/02/08 21:54:45;;;;;;;16.30;7.22;;;;;;;;;;5034734;28;20022;-76
2022/02/08 21:57:16;;;;;;;14.70;6.97;;;;;;;;;;5033551;28;20550;-77
2022/02/08 21:59:42;;;;;;;11.60;6.13;;;;;;;;;;5034287;28;20072;-77
2022/02/08 22:02:09;;;;;;;13.70;6.35;;;;;;;;;;5033479;28;20036;-76
2022/02/08 22:04:36;;;;;;;14.48;6.65;;;;;;;;;;5033524;28;20026;-76
2022/02/08 22:07:05;;;;;;;9.75;5.53;;;;;;;;;;5034387;28;20033;-76
2022/02/08 22:09:32;;;;;;;14.40;5.85;;;;;;;;;;5033453;28;20109;-75
2022/02/08 22:18:14;;;;;;;10.32;5.15;;;;;;;;;;5034388;28;20166;-77
2022/02/08 22:23:17;;;;;;;13.90;5.75;;;;;;;;;;5034503;28;20047;-76
2022/02/08 22:26:01;;;;;;;14.70;7.22;;;;;;;;;;5032983;28;20116;-76
2022/02/08 22:31:04;;;;;;;11.23;5.30;;;;;;;;;;5034165;28;19905;-77
2022/02/08 22:33:43;;;;;;;13.05;5.32;;;;;;;;;;5032893;28;20070;-76
2022/02/08 22:36:16;;;;;;;12.48;6.15;;;;;;;;;;5033773;28;20028;-76
2022/02/08 22:41:46;;;;;;;11.57;5.60;;;;;;;;;;5032529;28;20409;-75
2022/02/08 22:44:23;;;;;;;11.77;5.65;;;;;;;;;;5032760;28;20109;-76
2022/02/08 22:46:57;;;;;;;12.38;5.53;;;;;;;;;;5034187;28;20034;-75
2022/02/08 22:49:24;;;;;;;7.25;4.50;;;;;;;;;;5033408;28;20132;-76
2022/02/08 22:51:51;;;;;;;14.63;5.53;;;;;;;;;;5033989;28;20491;-76
2022/02/08 22:54:17;;;;;;;13.40;5.90;;;;;;;;;;5032563;28;20034;-77
2022/02/08 22:56:45;;;;;;;11.40;4.97;;;;;;;;;;5032149;28;20048;-76
2022/02/08 22:59:12;;;;;;;10.85;5.72;;;;;;;;;;5032345;28;20179;-76